Terminal Aerodrome Forecast
Issued by NWS

Home | Current Version | Previous Version | Graphics & Text | Print | Product List | Glossary On
Versions: 1 2 3 4 5 6 7 8 9 10 11 12 13 14 15 16 17 18 19 20 21 22 23 24 25 26 27
000
FTUS43 KLOT 231458 CCA
TAFMDW
TAF COR
KMDW 231458Z 2315/2418 24012G20KT 6SM BR OVC006
      TEMPO 2315/2318 4SM -DZ BR
     FM231900 26012G20KT P6SM OVC012
     FM232100 27012G20KT P6SM SCT015 OVC025
     FM240000 28007KT P6SM SCT020 BKN150
     FM240500 34005KT P6SM BKN100
     FM240900 04008KT P6SM BKN060=

USA.gov is the U.S. government's official web portal to all federal, state and local government web resources and services.